Weather History for Seminole, TX

Change the Weather History Date:

Wednesday, October 24, 2012

  Actual Average (KHOB) Record (KHOB)
Temperature  
Mean Temperature 74 °F -  
Max Temperature 88 °F 71 °F 87 °F (2003)
Min Temperature 60 °F 46 °F 35 °F (1955)
Cooling Degree Days 9    
Growing Degree Days 24 (Base 50)    
Moisture  
Dew Point 59 °F    
Average Humidity 69    
Maximum Humidity 95    
Minimum Humidity 29    
Precipitation  
Precipitation 0.00 in - - ()
Sea Level Pressure  
Sea Level Pressure 29.89 in    
Wind  
Wind Speed 11 mph (South)    
Max Wind Speed 17 mph    
Max Gust Speed 23 mph    
Visibility 9 miles    
Events      
Averages and records for this station are not official NWS values.
T = Trace of Precipitation, MM = Missing Value Source: NWS Daily Summary

Daily Weather History Graph

Daily Weather History Graph

Search for Another Location

Airport:

Trip Planner

Search our weather history database for the weather conditions in past years. The results will help you decide how hot, cold, wet, or windy it might be!

Date:

Astronomy

Oct. 24, 2012 Rise Set
Actual Time 8:01 AM CDT 7:06 PM CDT
Civil Twilight 7:36 AM CDT 7:32 PM CDT
Nautical Twilight 7:08 AM CDT 8:00 PM CDT
Astronomical Twilight 6:39 AM CDT 8:29 PM CDT
Moon 4:10 PM CDT (10/24) 3:14 AM CDT (10/24)
Length of Visible Light 11h 55m
Length of Day
11h 04m
Waxing Gibbous, 76% of the Moon is Illuminated
Oct 24
Waxing Gibbous
Oct 29
Full
Nov 6
Last Quarter
Nov 13
New
Nov 20
First Quarter

Hourly Weather History & Observations

Time (CDT) Temp. Heat Index Dew Point Humidity Pressure Visibility Wind Dir Wind Speed Gust Speed Precip Events Conditions
12:15 AM 66.6 °F - 56.8 °F 71% 29.95 in 10.0 mi South 10.4 mph - N/A   Clear
12:35 AM 66.2 °F - 58.6 °F 77% 29.94 in 10.0 mi South 11.5 mph - N/A   Clear
1:15 AM 66.9 °F - 61.2 °F 82% 29.94 in 10.0 mi South 10.4 mph - N/A   Clear
1:35 AM 66.7 °F - 61.3 °F 83% 29.94 in 10.0 mi South 10.4 mph - N/A   Clear
1:55 AM 66.9 °F - 61.5 °F 83% 29.94 in 10.0 mi South 12.7 mph - N/A   Clear
2:15 AM 67.1 °F - 61.7 °F 83% 29.94 in 10.0 mi South 12.7 mph - N/A   Clear
2:35 AM 67.3 °F - 61.9 °F 83% 29.94 in 10.0 mi South 12.7 mph 20.7 mph N/A   Clear
2:55 AM 67.1 °F - 61.9 °F 83% 29.94 in 10.0 mi South 12.7 mph - N/A   Clear
3:15 AM 67.1 °F - 61.7 °F 83% 29.93 in 10.0 mi South 11.5 mph 18.4 mph N/A   Clear
3:35 AM 66.7 °F - 61.7 °F 84% 29.93 in 10.0 mi South 10.4 mph - N/A   Clear
3:55 AM 66.0 °F - 61.3 °F 85% 29.93 in 10.0 mi South 9.2 mph - N/A   Clear
4:15 AM 64.9 °F - 61.0 °F 87% 29.93 in 10.0 mi South 6.9 mph - N/A   Clear
4:35 AM 63.7 °F - 60.6 °F 90% 29.93 in 10.0 mi SSW 5.8 mph - N/A   Clear
4:55 AM 62.6 °F - 60.1 °F 91% 29.92 in 7.0 mi SSW 4.6 mph - N/A   Clear
5:15 AM 61.7 °F - 59.5 °F 93% 29.92 in 5.0 mi South 5.8 mph - N/A   Clear
5:35 AM 61.0 °F - 59.2 °F 94% 29.93 in 5.0 mi SSW 5.8 mph - N/A   Clear
5:55 AM 61.0 °F - 59.4 °F 94% 29.93 in 5.0 mi SSW 6.9 mph - N/A   Clear
6:15 AM 61.2 °F - 59.5 °F 94% 29.93 in 7.0 mi SSW 5.8 mph - N/A   Clear
6:35 AM 61.0 °F - 59.2 °F 94% 29.93 in 7.0 mi SSW 5.8 mph - N/A   Clear
6:55 AM 60.8 °F - 59.2 °F 94% 29.93 in 7.0 mi SSW 5.8 mph - N/A   Clear
7:15 AM 60.6 °F - 59.0 °F 94% 29.93 in 7.0 mi SSW 5.8 mph - N/A   Clear
7:35 AM 60.4 °F - 59.0 °F 95% 29.93 in 7.0 mi SSW 6.9 mph - N/A   Clear
7:55 AM 60.8 °F - 59.4 °F 95% 29.94 in 10.0 mi South 4.6 mph - N/A   Clear
8:15 AM 61.0 °F - 59.4 °F 94% 29.94 in 7.0 mi South 5.8 mph - N/A   Clear
8:35 AM 61.7 °F - 60.1 °F 94% 29.94 in 10.0 mi South 6.9 mph - N/A   Clear
8:55 AM 62.6 °F - 60.8 °F 94% 29.94 in 10.0 mi South 5.8 mph - N/A   Clear
9:35 AM 63.5 °F - 61.3 °F 93% 29.95 in 10.0 mi South 8.1 mph - N/A   Clear
9:55 AM 64.4 °F - 61.5 °F 90% 29.96 in 10.0 mi South 8.1 mph - N/A   Clear
10:15 AM 65.7 °F - 61.9 °F 88% 29.95 in 10.0 mi South 10.4 mph - N/A   Clear
10:35 AM 66.7 °F - 62.2 °F 85% 29.96 in 10.0 mi SSW 13.8 mph - N/A   Clear
10:55 AM 67.5 °F - 62.1 °F 83% 29.96 in 10.0 mi South 13.8 mph - N/A   Clear
11:15 AM 68.5 °F - 62.2 °F 80% 29.95 in 10.0 mi South 12.7 mph - N/A   Clear
11:35 AM 70.0 °F - 62.2 °F 76% 29.94 in 10.0 mi SSW 12.7 mph - N/A   Clear
11:55 AM 72.0 °F - 62.1 °F 71% 29.94 in 10.0 mi South 12.7 mph - N/A   Clear
12:15 PM 72.9 °F - 61.7 °F 68% 29.93 in 10.0 mi South 11.5 mph - N/A   Clear
12:35 PM 74.1 °F - 61.7 °F 65% 29.92 in 10.0 mi South 15.0 mph - N/A   Clear
12:55 PM 76.3 °F - 61.3 °F 60% 29.92 in 10.0 mi South 15.0 mph 20.7 mph N/A   Clear
1:15 PM 78.1 °F - 61.2 °F 56% 29.90 in 10.0 mi South 15.0 mph - N/A   Clear
1:35 PM 80.1 °F 81.1 °F 61.0 °F 52% 29.89 in 10.0 mi SSW 15.0 mph 18.4 mph N/A   Clear
1:55 PM 81.7 °F 82.2 °F 60.3 °F 48% 29.88 in 10.0 mi South 13.8 mph 19.6 mph N/A   Clear
2:15 PM 82.8 °F 82.7 °F 58.8 °F 44% 29.87 in 10.0 mi SSW 15.0 mph 20.7 mph N/A   Clear
2:35 PM 84.6 °F 83.9 °F 57.6 °F 40% 29.86 in 10.0 mi SSW 13.8 mph - N/A   Clear
2:55 PM 85.8 °F 84.7 °F 56.5 °F 37% 29.84 in 10.0 mi South 17.3 mph - N/A   Clear
3:15 PM 86.2 °F 84.9 °F 56.1 °F 36% 29.84 in 10.0 mi South 11.5 mph 20.7 mph N/A   Clear
3:35 PM 86.0 °F 84.7 °F 55.9 °F 36% 29.83 in 10.0 mi South 13.8 mph - N/A   Clear
3:55 PM 88.2 °F 85.9 °F 53.1 °F 30% 29.82 in 10.0 mi SSW 15.0 mph 23.0 mph N/A   Clear
4:15 PM 88.2 °F - 52.5 °F 29% 29.82 in 10.0 mi SSW 15.0 mph 20.7 mph N/A   Clear
4:35 PM 87.6 °F - 52.0 °F 29% 29.82 in 10.0 mi SSW 15.0 mph 21.9 mph N/A   Clear
4:55 PM 88.0 °F - 52.2 °F 29% 29.81 in 10.0 mi SSW 17.3 mph 23.0 mph N/A   Clear
5:15 PM 87.4 °F - 52.0 °F 30% 29.81 in 10.0 mi SSW 16.1 mph 20.7 mph N/A   Clear
5:35 PM 86.7 °F - 51.6 °F 30% 29.80 in 10.0 mi SSW 13.8 mph 19.6 mph N/A   Clear
5:55 PM 86.2 °F - 51.4 °F 30% 29.80 in 10.0 mi SSW 12.7 mph 19.6 mph N/A   Clear
6:15 PM 85.3 °F 83.8 °F 54.5 °F 35% 29.80 in 10.0 mi South 12.7 mph - N/A   Clear
6:35 PM 82.9 °F 82.6 °F 57.6 °F 42% 29.80 in 10.0 mi South 10.4 mph - N/A   Clear
6:55 PM 81.3 °F 81.4 °F 58.1 °F 45% 29.80 in 10.0 mi South 12.7 mph - N/A   Clear
7:15 PM 80.2 °F 80.7 °F 58.1 °F 47% 29.80 in 10.0 mi South 12.7 mph - N/A   Clear
7:35 PM 79.3 °F - 57.9 °F 48% 29.80 in 10.0 mi South 12.7 mph - N/A   Clear
7:55 PM 78.3 °F - 58.1 °F 50% 29.81 in 10.0 mi South 13.8 mph 17.3 mph N/A   Clear
8:15 PM 77.0 °F - 58.3 °F 52% 29.82 in 10.0 mi South 12.7 mph - N/A   Clear
8:35 PM 75.6 °F - 58.5 °F 55% 29.83 in 10.0 mi South 9.2 mph - N/A   Clear
8:55 PM 73.9 °F - 58.6 °F 59% 29.83 in 10.0 mi South 10.4 mph - N/A   Clear
9:15 PM 73.4 °F - 59.4 °F 61% 29.83 in 10.0 mi South 13.8 mph 20.7 mph N/A   Clear
9:35 PM 72.7 °F - 60.1 °F 64% 29.83 in 10.0 mi South 12.7 mph - N/A   Clear
9:55 PM 71.4 °F - 60.6 °F 69% 29.83 in 10.0 mi South 15.0 mph 19.6 mph N/A   Clear
10:15 PM 70.9 °F - 61.2 °F 71% 29.83 in 7.0 mi South 15.0 mph 21.9 mph N/A   Clear
10:35 PM 70.0 °F - 61.7 °F 75% 29.84 in 7.0 mi South 11.5 mph - N/A   Clear
10:55 PM 69.1 °F - 61.5 °F 77% 29.84 in 7.0 mi South 16.1 mph 19.6 mph N/A   Clear
11:15 PM 68.5 °F - 61.7 °F 79% 29.84 in 10.0 mi South 13.8 mph 19.6 mph N/A   Clear
11:35 PM 67.8 °F - 61.7 °F 81% 29.84 in 10.0 mi South 13.8 mph - N/A   Clear
11:55 PM 67.1 °F - 61.7 °F 83% 29.84 in 10.0 mi South 13.8 mph 18.4 mph N/A   Clear